Time;durP1;ratioP1;P1;durP2;ratioP2;P2;SDS_P1;SDS_P2;PMS_P1;PMS_P2;Temp;Humidity;BMP_temperature;BMP_pressure;BME280_temperature;BME280_humidity;BME280_pressure;Samples;Min_cycle;Max_cycle;Signal;HPM_P1;HPM_P2
2023/06/29 00:00:17;;;;;;;11.23;4.27;;;;;;;21.19;100.00;100805.06;5036678;28;20025;-46
2023/06/29 00:02:42;;;;;;;6.20;3.53;;;;;;;21.17;100.00;100806.38;5042147;28;20709;-46
2023/06/29 00:05:08;;;;;;;6.00;3.72;;;;;;;21.16;100.00;100807.44;5026162;28;20627;-47
2023/06/29 00:07:34;;;;;;;4.72;3.53;;;;;;;21.11;100.00;100811.72;5050915;28;20025;-49
2023/06/29 00:10:00;;;;;;;6.00;3.67;;;;;;;21.08;100.00;100801.44;5032226;28;20348;-51
2023/06/29 00:12:26;;;;;;;5.68;3.58;;;;;;;21.09;100.00;100802.25;5037325;28;20025;-50
2023/06/29 00:14:51;;;;;;;4.45;3.60;;;;;;;21.07;100.00;100804.41;5034873;28;20041;-48
2023/06/29 00:17:16;;;;;;;5.70;3.08;;;;;;;21.04;100.00;100805.72;5030863;28;20033;-47
2023/06/29 00:19:42;;;;;;;4.55;2.40;;;;;;;20.94;100.00;100816.38;5026873;28;20045;-51
2023/06/29 00:22:09;;;;;;;3.17;2.10;;;;;;;20.86;100.00;100808.75;5039472;28;20040;-48
2023/06/29 00:24:42;;;;;;;2.15;1.95;;;;;;;20.81;100.00;100819.47;5035677;28;20307;-48
2023/06/29 00:27:08;;;;;;;1.73;1.63;;;;;;;20.75;100.00;100815.88;5025608;28;20087;-48
2023/06/29 00:29:33;;;;;;;1.05;0.95;;;;;;;20.78;100.00;100812.69;5034705;28;20032;-50
2023/06/29 00:31:58;;;;;;;1.73;0.82;;;;;;;20.81;100.00;100803.28;5034488;28;20028;-49
2023/06/29 00:34:23;;;;;;;1.40;1.17;;;;;;;20.80;100.00;100801.66;5032410;28;20116;-50
2023/06/29 00:36:49;;;;;;;1.23;1.13;;;;;;;20.77;100.00;100797.56;5037184;28;20029;-51
2023/06/29 00:39:14;;;;;;;1.40;0.93;;;;;;;20.76;100.00;100801.34;5038454;28;20040;-47
2023/06/29 00:41:39;;;;;;;1.48;0.52;;;;;;;20.74;100.00;100798.09;5035863;28;20091;-46
2023/06/29 00:44:05;;;;;;;0.77;0.47;;;;;;;20.57;100.00;100798.13;5032737;28;20028;-46
2023/06/29 00:46:30;;;;;;;1.98;0.30;;;;;;;20.50;100.00;100794.78;5040035;28;20020;-46
2023/06/29 00:48:55;;;;;;;0.43;0.43;;;;;;;20.51;100.00;100787.53;5026326;28;20041;-50
2023/06/29 00:51:21;;;;;;;3.13;0.43;;;;;;;20.56;100.00;100796.50;5034937;28;20033;-48
2023/06/29 00:53:46;;;;;;;0.47;0.38;;;;;;;20.59;100.00;100773.66;5037625;28;20055;-45
2023/06/29 00:56:12;;;;;;;0.30;0.22;;;;;;;20.61;100.00;100776.91;5027214;28;20371;-47
2023/06/29 00:58:38;;;;;;;1.20;0.50;;;;;;;20.57;100.00;100779.28;5029919;28;20040;-44
2023/06/29 01:01:03;;;;;;;0.22;0.10;;;;;;;20.60;100.00;100780.66;5034430;28;20045;-48
2023/06/29 01:03:30;;;;;;;2.58;0.40;;;;;;;20.60;100.00;100784.19;5035936;28;20029;-46
2023/06/29 01:06:03;;;;;;;3.55;0.40;;;;;;;20.59;100.00;100777.16;5024837;28;20482;-45
2023/06/29 01:08:33;;;;;;;0.20;0.20;;;;;;;20.60;100.00;100777.97;5026247;28;20041;-46
2023/06/29 01:11:01;;;;;;;0.28;0.10;;;;;;;20.60;100.00;100778.78;5026647;28;20033;-45
2023/06/29 01:13:27;;;;;;;0.20;0.13;;;;;;;20.55;100.00;100780.59;5033045;28;20040;-47
2023/06/29 01:15:53;;;;;;;0.22;0.22;;;;;;;20.45;100.00;100775.88;5028942;28;20162;-46
2023/06/29 01:18:19;;;;;;;1.27;0.10;;;;;;;20.25;100.00;100782.59;5029698;28;20124;-46
2023/06/29 01:20:49;;;;;;;2.35;0.10;;;;;;;19.97;100.00;100782.72;5033519;28;20036;-48
2023/06/29 01:23:23;;;;;;;0.10;0.10;;;;;;;19.67;100.00;100796.50;5029207;28;20485;-46
2023/06/29 01:25:50;;;;;;;0.00;0.00;;;;;;;19.12;100.00;100789.84;5031972;28;20107;-45
2023/06/29 01:28:15;;;;;;;0.00;0.00;;;;;;;18.68;100.00;100794.88;5026382;28;20512;-46
2023/06/29 01:30:45;;;;;;;0.08;0.08;;;;;;;18.47;100.00;100799.81;5026055;28;20029;-45
2023/06/29 01:33:10;;;;;;;0.00;0.00;;;;;;;18.47;100.00;100807.84;5035261;28;21252;-45
2023/06/29 01:35:36;;;;;;;0.52;0.00;;;;;;;18.40;100.00;100804.47;5026388;28;20424;-45
2023/06/29 01:38:17;;;;;;;0.00;0.00;;;;;;;18.31;100.00;100806.72;5026249;28;20102;-47
2023/06/29 01:40:46;;;;;;;0.20;0.00;;;;;;;18.38;100.00;100808.44;5029835;28;20029;-48
2023/06/29 01:43:13;;;;;;;0.00;0.00;;;;;;;18.21;100.00;100794.94;5034599;28;20112;-47
2023/06/29 01:45:40;;;;;;;0.00;0.00;;;;;;;18.21;100.00;100808.34;5023019;28;20207;-45
2023/06/29 01:48:06;;;;;;;0.13;0.00;;;;;;;18.45;100.00;100812.63;5036223;28;20033;-49
2023/06/29 01:50:31;;;;;;;0.00;0.00;;;;;;;18.30;100.00;100798.88;5031563;28;20028;-49
2023/06/29 01:52:57;;;;;;;0.00;0.00;;;;;;;18.15;100.00;100790.47;5038865;28;20040;-46
2023/06/29 01:55:24;;;;;;;0.20;0.00;;;;;;;18.18;100.00;100795.41;5034888;28;20069;-49
2023/06/29 01:57:49;;;;;;;0.00;0.00;;;;;;;18.19;100.00;100802.38;5028187;28;20037;-47
2023/06/29 02:00:15;;;;;;;0.10;0.00;;;;;;;18.13;100.00;100800.66;5027140;28;20036;-48
2023/06/29 02:02:41;;;;;;;0.00;0.00;;;;;;;18.22;100.00;100809.97;5034780;28;20115;-47
2023/06/29 02:05:07;;;;;;;0.00;0.00;;;;;;;18.07;100.00;100799.69;5026110;28;20554;-54
2023/06/29 02:07:33;;;;;;;0.00;0.00;;;;;;;18.08;100.00;100796.78;5033867;28;20501;-47
2023/06/29 02:09:59;;;;;;;0.10;0.00;;;;;;;18.03;100.00;100804.72;5034965;28;20029;-45
2023/06/29 02:12:24;;;;;;;0.00;0.00;;;;;;;17.90;100.00;100799.56;5029385;28;20075;-49
2023/06/29 02:14:50;;;;;;;0.00;0.00;;;;;;;17.79;100.00;100797.69;5033772;28;20029;-50
2023/06/29 02:17:16;;;;;;;0.00;0.00;;;;;;;17.82;100.00;100800.72;5028403;28;20025;-50
2023/06/29 02:19:41;;;;;;;0.00;0.00;;;;;;;17.83;100.00;100794.31;5025859;28;20025;-48
2023/06/29 02:22:06;;;;;;;0.00;0.00;;;;;;;17.90;100.00;100796.09;5030513;28;20037;-47
2023/06/29 02:24:32;;;;;;;0.00;0.00;;;;;;;18.02;100.00;100794.25;5036105;28;20418;-49
2023/06/29 02:26:57;;;;;;;0.00;0.00;;;;;;;17.91;100.00;100785.09;5027917;28;20542;-47
2023/06/29 02:29:23;;;;;;;0.00;0.00;;;;;;;17.95;100.00;100791.66;5028578;28;20025;-49
2023/06/29 02:31:48;;;;;;;0.00;0.00;;;;;;;17.91;100.00;100785.09;5034634;28;20036;-46
2023/06/29 02:34:14;;;;;;;0.00;0.00;;;;;;;17.93;100.00;100792.94;5036746;28;20115;-51
2023/06/29 02:36:39;;;;;;;0.10;0.10;;;;;;;17.97;100.00;100792.25;5028145;28;20040;-48
2023/06/29 02:39:04;;;;;;;0.00;0.00;;;;;;;18.04;100.00;100801.00;5030274;28;20132;-50
2023/06/29 02:41:30;;;;;;;0.32;0.00;;;;;;;17.99;100.00;100794.69;5030822;28;20474;-48
2023/06/29 02:43:55;;;;;;;0.32;0.00;;;;;;;17.89;100.00;100803.31;5034542;28;20040;-47
2023/06/29 02:46:21;;;;;;;0.00;0.00;;;;;;;17.78;100.00;100806.75;5028046;28;20025;-49
2023/06/29 02:48:46;;;;;;;0.00;0.00;;;;;;;17.66;100.00;100806.75;5033530;28;20029;-46
2023/06/29 02:51:12;;;;;;;0.20;0.00;;;;;;;17.72;100.00;100807.69;5031587;28;20036;-53
2023/06/29 02:53:37;;;;;;;0.00;0.00;;;;;;;17.67;100.00;100805.69;5035445;28;20025;-48
2023/06/29 02:56:03;;;;;;;0.00;0.00;;;;;;;17.66;100.00;100802.19;5039396;28;20033;-47
2023/06/29 02:58:28;;;;;;;0.00;0.00;;;;;;;17.64;100.00;100806.97;5033694;28;20036;-49
2023/06/29 03:00:53;;;;;;;0.00;0.00;;;;;;;17.67;100.00;100806.50;5030447;28;20053;-48
2023/06/29 03:03:19;;;;;;;0.00;0.00;;;;;;;17.57;100.00;100806.25;5035502;28;20461;-48
2023/06/29 03:05:44;;;;;;;0.00;0.00;;;;;;;17.59;100.00;100803.34;5032996;28;20474;-47
2023/06/29 03:08:09;;;;;;;0.00;0.00;;;;;;;17.67;100.00;100811.88;5039251;28;20828;-54
2023/06/29 03:10:34;;;;;;;0.00;0.00;;;;;;;17.54;100.00;100800.53;5031272;28;20039;-49
2023/06/29 03:13:00;;;;;;;0.10;0.00;;;;;;;17.46;100.00;100809.72;5031772;28;20113;-53
2023/06/29 03:15:25;;;;;;;0.00;0.00;;;;;;;17.46;100.00;100815.06;5038448;28;20043;-48
2023/06/29 03:17:50;;;;;;;0.00;0.00;;;;;;;17.55;100.00;100808.31;5027849;28;20413;-46
2023/06/29 03:20:17;;;;;;;0.00;0.00;;;;;;;17.57;100.00;100803.56;5030799;28;20036;-45
2023/06/29 03:22:42;;;;;;;0.00;0.00;;;;;;;17.51;100.00;100798.31;5033504;28;20056;-48
2023/06/29 03:25:10;;;;;;;3.55;0.98;;;;;;;17.45;100.00;100797.38;5036225;28;20064;-48
2023/06/29 03:27:35;;;;;;;0.00;0.00;;;;;;;17.45;100.00;100805.41;5041299;28;20025;-50
2023/06/29 03:30:00;;;;;;;0.00;0.00;;;;;;;17.37;100.00;100800.34;5029661;28;20025;-47
2023/06/29 03:32:25;;;;;;;0.00;0.00;;;;;;;17.42;100.00;100798.66;5031611;28;20492;-50
2023/06/29 03:34:51;;;;;;;0.00;0.00;;;;;;;17.41;100.00;100788.94;5031340;28;20032;-46
2023/06/29 03:37:16;;;;;;;0.00;0.00;;;;;;;17.34;100.00;100782.06;5036262;28;20398;-51
2023/06/29 03:39:41;;;;;;;0.00;0.00;;;;;;;17.30;100.00;100791.63;5029140;28;20024;-51
2023/06/29 03:42:07;;;;;;;0.10;0.00;;;;;;;17.28;100.00;100804.41;5037882;28;20406;-52
2023/06/29 03:44:34;;;;;;;2.30;0.00;;;;;;;17.28;100.00;100801.72;5035121;28;20028;-45
2023/06/29 03:46:59;;;;;;;0.08;0.00;;;;;;;17.33;100.00;100804.56;5033639;28;20370;-50
2023/06/29 03:49:24;;;;;;;0.00;0.00;;;;;;;17.29;100.00;100801.50;5028866;28;20060;-50
2023/06/29 03:51:50;;;;;;;0.00;0.00;;;;;;;17.31;100.00;100799.41;5039146;28;20059;-46
2023/06/29 03:54:15;;;;;;;0.00;0.00;;;;;;;17.35;100.00;100805.97;5037154;28;20032;-45
2023/06/29 03:56:40;;;;;;;0.00;0.00;;;;;;;17.44;100.00;100825.19;5037415;28;20056;-46
2023/06/29 03:59:05;;;;;;;0.00;0.00;;;;;;;17.38;100.00;100823.44;5028311;28;20049;-48
2023/06/29 04:01:31;;;;;;;0.00;0.00;;;;;;;17.33;100.00;100809.91;5031787;28;20468;-48
2023/06/29 04:03:56;;;;;;;0.63;0.00;;;;;;;17.31;100.00;100806.63;5031197;28;20034;-49
2023/06/29 04:06:22;;;;;;;0.17;0.17;;;;;;;17.31;100.00;100812.81;5029057;28;20169;-46
2023/06/29 04:08:47;;;;;;;0.13;0.10;;;;;;;17.32;100.00;100814.47;5025555;28;20033;-44
2023/06/29 04:11:12;;;;;;;0.65;0.65;;;;;;;17.32;100.00;100814.47;5032525;28;20434;-47
2023/06/29 04:13:38;;;;;;;0.63;0.45;;;;;;;17.34;100.00;100820.38;5039446;28;20025;-47
2023/06/29 04:16:04;;;;;;;0.55;0.40;;;;;;;17.34;100.00;100816.88;5028531;28;20040;-45
2023/06/29 04:18:29;;;;;;;4.05;1.50;;;;;;;17.27;100.00;100821.53;5036108;28;20036;-50
2023/06/29 04:20:54;;;;;;;0.40;0.38;;;;;;;17.29;100.00;100824.78;5040942;28;20040;-48
2023/06/29 04:23:20;;;;;;;1.50;1.35;;;;;;;17.20;100.00;100825.13;5035503;28;20496;-50
2023/06/29 04:25:45;;;;;;;1.90;1.02;;;;;;;17.21;100.00;100818.69;5039838;28;20451;-48
2023/06/29 04:28:13;;;;;;;1.52;1.40;;;;;;;17.23;100.00;100819.28;5037643;28;20021;-45
2023/06/29 04:30:43;;;;;;;0.95;0.95;;;;;;;17.20;100.00;100817.06;5041069;28;20033;-48
2023/06/29 04:33:11;;;;;;;1.65;1.20;;;;;;;17.19;100.00;100830.69;5039047;28;20036;-49
2023/06/29 04:35:43;;;;;;;4.35;1.42;;;;;;;17.14;100.00;100833.22;5040715;28;20145;-47
2023/06/29 04:38:10;;;;;;;1.40;0.80;;;;;;;17.13;100.00;100827.06;5035436;28;20037;-46
2023/06/29 04:40:36;;;;;;;1.67;0.90;;;;;;;17.19;100.00;100828.00;5037574;28;20402;-48
2023/06/29 04:43:02;;;;;;;2.13;0.22;;;;;;;17.20;100.00;100829.66;5030445;28;20033;-47
2023/06/29 04:45:28;;;;;;;0.60;0.60;;;;;;;17.16;100.00;100825.78;5034529;28;20064;-49
2023/06/29 04:47:56;;;;;;;0.75;0.75;;;;;;;17.14;100.00;100831.38;5031566;28;20118;-47
2023/06/29 04:50:25;;;;;;;0.70;0.70;;;;;;;17.13;100.00;100828.94;5036763;28;20029;-47
2023/06/29 04:52:54;;;;;;;1.58;0.98;;;;;;;17.19;100.00;100828.00;5030498;28;20371;-46
2023/06/29 04:55:19;;;;;;;2.60;2.40;;;;;;;17.29;100.00;100819.44;5033891;28;20541;-47
2023/06/29 04:57:45;;;;;;;0.40;0.40;;;;;;;17.28;100.00;100829.34;5037520;28;20029;-49
2023/06/29 05:00:11;;;;;;;0.55;0.55;;;;;;;17.20;100.00;100830.47;5032137;28;20359;-47
2023/06/29 05:02:38;;;;;;;2.17;0.90;;;;;;;17.24;100.00;100830.81;5034277;28;20044;-48
2023/06/29 05:05:04;;;;;;;0.73;0.73;;;;;;;17.29;100.00;100838.19;5025836;28;20483;-51
2023/06/29 05:07:29;;;;;;;1.92;1.00;;;;;;;17.34;100.00;100832.97;5030951;28;20482;-48
2023/06/29 05:09:55;;;;;;;2.03;1.80;;;;;;;17.25;100.00;100832.47;5032753;28;20064;-53
2023/06/29 05:12:21;;;;;;;1.58;1.48;;;;;;;17.23;100.00;100826.53;5048616;28;20114;-50
2023/06/29 05:14:46;;;;;;;1.40;1.30;;;;;;;17.18;100.00;100823.69;5034058;28;20025;-45
2023/06/29 05:17:11;;;;;;;6.72;2.00;;;;;;;17.29;100.00;100832.84;5027009;28;20044;-51
2023/06/29 05:19:37;;;;;;;1.40;1.30;;;;;;;17.21;100.00;100824.06;5033778;28;20359;-48
2023/06/29 05:22:02;;;;;;;1.00;1.00;;;;;;;17.17;100.00;100817.53;5031625;28;20029;-48
2023/06/29 05:24:29;;;;;;;1.10;1.00;;;;;;;17.04;100.00;100828.44;5028847;28;20401;-51
2023/06/29 05:26:55;;;;;;;1.13;1.02;;;;;;;17.07;100.00;100836.00;5035911;28;20504;-52
2023/06/29 05:29:20;;;;;;;3.20;2.15;;;;;;;17.03;100.00;100850.06;5026358;28;20081;-53
2023/06/29 05:31:45;;;;;;;2.67;1.55;;;;;;;16.92;100.00;100857.00;5027408;28;20474;-48
2023/06/29 05:34:11;;;;;;;0.90;0.90;;;;;;;16.95;100.00;100862.72;5028074;28;20403;-52
2023/06/29 05:36:36;;;;;;;1.05;0.90;;;;;;;16.92;100.00;100854.31;5034375;28;20040;-47
2023/06/29 05:39:02;;;;;;;1.17;1.08;;;;;;;16.93;100.00;100861.31;5029238;28;20075;-46
2023/06/29 05:41:27;;;;;;;3.67;1.30;;;;;;;16.92;100.00;100854.31;5025973;28;20051;-49
2023/06/29 05:43:53;;;;;;;1.02;1.02;;;;;;;16.90;100.00;100851.03;5026464;28;20077;-47
2023/06/29 05:46:18;;;;;;;3.15;0.70;;;;;;;16.97;100.00;100855.28;5025526;28;20024;-45
2023/06/29 05:48:43;;;;;;;8.45;1.10;;;;;;;17.08;100.00;100856.38;5026477;28;20039;-45
2023/06/29 05:51:08;;;;;;;1.65;0.75;;;;;;;17.16;100.00;100858.75;5033808;28;20448;-46
2023/06/29 05:53:34;;;;;;;1.85;0.55;;;;;;;17.07;100.00;100853.94;5034645;28;20029;-50
2023/06/29 05:55:59;;;;;;;2.25;0.70;;;;;;;17.08;100.00;100856.38;5029942;28;20543;-47
2023/06/29 05:58:24;;;;;;;1.05;0.63;;;;;;;17.16;100.00;100858.75;5036182;28;20109;-48
2023/06/29 06:00:51;;;;;;;1.45;0.68;;;;;;;17.05;100.00;100864.06;5035067;28;20053;-45
2023/06/29 06:03:16;;;;;;;0.90;0.50;;;;;;;16.98;100.00;100859.59;5034367;28;20024;-45
2023/06/29 06:05:42;;;;;;;0.90;0.90;;;;;;;16.99;100.00;100868.47;5031021;28;20060;-49
2023/06/29 06:08:07;;;;;;;1.65;0.90;;;;;;;16.92;100.00;100868.53;5029763;28;20040;-47
2023/06/29 06:10:32;;;;;;;0.80;0.80;;;;;;;17.00;100.00;100870.09;5033388;28;20037;-47
2023/06/29 06:12:58;;;;;;;1.33;0.60;;;;;;;17.00;100.00;100873.56;5036390;28;20144;-45
2023/06/29 06:15:23;;;;;;;0.70;0.70;;;;;;;17.10;100.00;100873.06;5035442;28;20561;-46
2023/06/29 06:17:48;;;;;;;1.15;0.68;;;;;;;17.17;100.00;100881.03;5026719;28;20065;-46
2023/06/29 06:20:14;;;;;;;1.52;0.75;;;;;;;17.25;100.00;100887.94;5032272;28;20036;-50
2023/06/29 06:22:39;;;;;;;1.73;0.57;;;;;;;17.32;100.00;100884.13;5036281;28;20025;-48
2023/06/29 06:25:05;;;;;;;0.75;0.73;;;;;;;17.34;100.00;100895.44;5037622;28;20038;-49
2023/06/29 06:27:31;;;;;;;1.27;0.77;;;;;;;17.29;100.00;100894.47;5039959;28;20489;-46
2023/06/29 06:29:57;;;;;;;0.90;0.90;;;;;;;17.27;100.00;100901.91;5030985;28;20040;-47
2023/06/29 06:32:24;;;;;;;4.85;1.85;;;;;;;17.32;100.00;100904.72;5040377;28;20025;-49
2023/06/29 06:34:52;;;;;;;0.75;0.73;;;;;;;17.40;100.00;100907.94;5040277;28;20555;-48
2023/06/29 06:37:18;;;;;;;1.45;0.85;;;;;;;17.53;100.00;100896.22;5037411;28;20037;-47
2023/06/29 06:39:43;;;;;;;1.15;1.05;;;;;;;17.51;100.00;100901.00;5034478;28;20037;-48
2023/06/29 06:42:09;;;;;;;1.05;1.05;;;;;;;17.60;100.00;100890.75;5032133;28;20036;-52
2023/06/29 06:44:36;;;;;;;1.00;1.00;;;;;;;17.67;100.00;100894.97;5036027;28;20032;-49
2023/06/29 06:47:01;;;;;;;1.40;1.30;;;;;;;17.69;100.00;100886.72;5035169;28;20025;-50
2023/06/29 06:49:27;;;;;;;0.85;0.45;;;;;;;17.72;100.00;100888.94;5032838;28;20030;-47
2023/06/29 06:51:52;;;;;;;1.48;1.38;;;;;;;17.87;100.00;100886.69;5030695;28;20052;-47
2023/06/29 06:54:17;;;;;;;1.98;1.02;;;;;;;17.92;100.00;100891.38;5030841;28;21000;-46
2023/06/29 06:56:42;;;;;;;1.33;1.23;;;;;;;17.75;100.00;100896.53;5031043;28;20047;-47
2023/06/29 06:59:08;;;;;;;0.88;0.88;;;;;;;17.64;100.00;100887.41;5033452;28;20029;-48
2023/06/29 07:01:33;;;;;;;0.85;0.85;;;;;;;17.64;100.00;100898.13;5025424;28;20144;-50
2023/06/29 07:03:58;;;;;;;1.10;1.00;;;;;;;17.65;100.00;100890.91;5024377;28;20052;-49
2023/06/29 07:06:24;;;;;;;0.98;0.93;;;;;;;17.75;100.00;100883.13;5031246;28;20720;-45
2023/06/29 07:08:49;;;;;;;1.00;1.00;;;;;;;17.81;100.00;100886.78;5037226;28;20438;-49
2023/06/29 07:11:14;;;;;;;1.75;1.33;;;;;;;17.84;100.00;100894.38;5031759;28;20035;-50
2023/06/29 07:13:40;;;;;;;1.10;1.10;;;;;;;17.83;100.00;100895.41;5033552;28;20079;-48
2023/06/29 07:16:06;;;;;;;1.75;1.50;;;;;;;17.77;100.00;100901.69;5037072;28;20060;-46
2023/06/29 07:18:36;;;;;;;0.73;0.73;;;;;;;17.72;100.00;100906.91;5026298;28;20472;-47
2023/06/29 07:21:01;;;;;;;2.60;1.98;;;;;;;17.75;100.00;100909.13;5029021;28;20036;-48
2023/06/29 07:23:26;;;;;;;2.40;2.20;;;;;;;17.82;100.00;100913.38;5029513;28;20037;-48
2023/06/29 07:25:52;;;;;;;1.80;1.70;;;;;;;17.90;100.00;100924.84;5030511;28;20403;-47
2023/06/29 07:28:17;;;;;;;1.52;1.27;;;;;;;17.92;100.00;100925.44;5036235;28;20407;-47
2023/06/29 07:30:42;;;;;;;1.45;1.35;;;;;;;17.80;100.00;100917.34;5040152;28;20025;-46
2023/06/29 07:33:08;;;;;;;2.10;1.90;;;;;;;17.87;100.00;100924.25;5041091;28;20036;-46
2023/06/29 07:35:34;;;;;;;1.60;1.45;;;;;;;17.87;100.00;100928.78;5039082;28;20073;-48
2023/06/29 07:37:59;;;;;;;1.73;1.63;;;;;;;17.85;100.00;100933.56;5040501;28;20064;-47
2023/06/29 07:40:24;;;;;;;4.55;1.75;;;;;;;17.87;100.00;100923.44;5037228;28;20029;-50
2023/06/29 07:42:49;;;;;;;1.65;1.63;;;;;;;17.84;100.00;100918.53;5032156;28;20033;-48
2023/06/29 07:45:15;;;;;;;1.88;1.35;;;;;;;17.85;100.00;100920.97;5026919;28;20088;-45
2023/06/29 07:47:41;;;;;;;1.90;1.27;;;;;;;17.80;100.00;100922.69;5031966;28;20446;-48
2023/06/29 07:50:07;;;;;;;1.67;1.10;;;;;;;17.90;100.00;100922.97;5026501;28;20040;-46
2023/06/29 07:52:33;;;;;;;0.90;0.88;;;;;;;18.00;100.00;100915.19;5040923;28;20033;-46
2023/06/29 07:54:58;;;;;;;1.55;0.98;;;;;;;18.17;100.00;100920.69;5028354;28;20025;-47
2023/06/29 07:57:23;;;;;;;3.92;1.67;;;;;;;18.29;100.00;100928.78;5033554;28;20394;-46
2023/06/29 07:59:49;;;;;;;1.13;1.13;;;;;;;18.18;100.00;100924.22;4989911;28;20527;-48
2023/06/29 08:02:14;;;;;;;1.92;1.27;;;;;;;18.23;100.00;100924.34;5012529;28;20442;-49
2023/06/29 08:04:39;;;;;;;2.13;1.27;;;;;;;18.29;100.00;100926.91;5029438;28;20025;-49
2023/06/29 08:07:06;;;;;;;3.13;1.48;;;;;;;18.39;100.00;100918.28;5035801;28;20033;-49
2023/06/29 08:09:31;;;;;;;2.15;1.58;;;;;;;18.48;100.00;100924.97;5034152;28;20032;-52
2023/06/29 08:11:58;;;;;;;1.30;1.00;;;;;;;18.64;100.00;100923.44;5037602;28;20024;-50
2023/06/29 08:14:23;;;;;;;0.77;0.77;;;;;;;18.76;100.00;100920.75;5036921;28;20486;-47
2023/06/29 08:16:48;;;;;;;3.92;1.48;;;;;;;18.94;100.00;100933.25;5031889;28;20090;-50
2023/06/29 08:19:15;;;;;;;1.45;0.73;;;;;;;18.86;100.00;100922.88;5024204;28;20063;-48
2023/06/29 08:21:41;;;;;;;1.05;0.57;;;;;;;18.91;100.00;100923.78;5022062;28;20570;-47
2023/06/29 08:24:06;;;;;;;6.53;1.33;;;;;;;18.90;100.00;100921.34;5025599;28;20188;-52
2023/06/29 08:26:32;;;;;;;1.17;0.77;;;;;;;18.95;100.00;100919.59;5031153;28;20036;-48
2023/06/29 08:28:57;;;;;;;1.35;0.30;;;;;;;19.17;100.00;100916.28;5037010;28;20899;-47
2023/06/29 08:31:22;;;;;;;0.98;0.75;;;;;;;19.22;100.00;100915.56;5034118;28;21388;-49
2023/06/29 08:33:49;;;;;;;1.15;0.63;;;;;;;19.32;100.00;100911.22;5035754;28;20039;-50
2023/06/29 08:36:14;;;;;;;3.45;0.65;;;;;;;19.53;100.00;100917.00;5026609;28;20558;-52
2023/06/29 08:38:43;;;;;;;1.08;0.30;;;;;;;19.70;100.00;100912.50;5023651;28;20102;-48
2023/06/29 08:41:08;;;;;;;1.45;0.20;;;;;;;20.11;100.00;100898.94;5026013;28;20546;-48
2023/06/29 08:43:33;;;;;;;3.72;1.40;;;;;;;20.32;100.00;100913.56;5034271;28;20037;-49
2023/06/29 08:45:59;;;;;;;1.65;0.30;;;;;;;20.46;100.00;100896.00;5028388;28;20132;-51
2023/06/29 08:48:26;;;;;;;1.27;0.60;;;;;;;20.24;100.00;100899.44;5026000;28;20773;-54
2023/06/29 08:50:56;;;;;;;0.17;0.17;;;;;;;20.20;100.00;100903.66;5033884;28;20112;-52
2023/06/29 08:53:21;;;;;;;0.47;0.47;;;;;;;20.22;100.00;100898.06;5034079;28;20086;-50
2023/06/29 08:55:48;;;;;;;0.93;0.60;;;;;;;20.13;100.00;100904.88;5035076;28;20041;-53
2023/06/29 08:58:14;;;;;;;0.43;0.43;;;;;;;20.40;100.00;100905.06;5030306;28;20121;-50
2023/06/29 09:00:40;;;;;;;0.52;0.10;;;;;;;20.67;100.00;100900.63;5028206;28;20477;-54
2023/06/29 09:03:06;;;;;;;0.50;0.13;;;;;;;20.98;100.00;100906.44;5035833;28;20373;-49
2023/06/29 09:05:32;;;;;;;3.33;0.32;;;;;;;21.34;100.00;100909.56;5027571;28;20029;-53
2023/06/29 09:07:58;;;;;;;1.80;0.30;;;;;;;21.39;100.00;100903.47;5025522;28;20038;-52
2023/06/29 09:10:23;;;;;;;1.17;0.40;;;;;;;21.20;100.00;100889.47;5023395;28;20057;-52
2023/06/29 09:12:52;;;;;;;1.40;0.20;;;;;;;21.21;100.00;100886.50;5026616;28;20063;-52
2023/06/29 09:15:17;;;;;;;2.65;0.30;;;;;;;21.34;100.00;100890.69;5032684;28;20041;-55
2023/06/29 09:17:45;;;;;;;0.25;0.10;;;;;;;21.61;100.00;100884.53;5031511;28;20270;-56
2023/06/29 09:20:15;;;;;;;1.85;0.10;;;;;;;21.84;100.00;100891.50;5034026;28;20041;-50
2023/06/29 09:22:40;;;;;;;3.60;0.20;;;;;;;22.09;100.00;100882.81;5036740;28;20033;-53
2023/06/29 09:25:07;;;;;;;0.30;0.10;;;;;;;22.12;100.00;100885.00;5033704;28;20029;-66
2023/06/29 09:27:36;;;;;;;1.15;0.35;;;;;;;21.65;100.00;100891.88;5036070;28;20041;-50
2023/06/29 09:30:06;;;;;;;2.38;0.10;;;;;;;21.90;100.00;100888.59;5033115;28;20036;-55
2023/06/29 09:32:36;;;;;;;2.40;0.40;;;;;;;22.10;100.00;100879.06;5036779;28;20627;-54
2023/06/29 09:35:06;;;;;;;0.68;0.10;;;;;;;22.14;100.00;100882.84;5033782;28;20037;-50
2023/06/29 09:37:33;;;;;;;2.30;0.13;;;;;;;22.39;100.00;100885.78;5033763;28;20040;-48
2023/06/29 09:39:59;;;;;;;1.52;0.00;;;;;;;22.39;100.00;100891.19;5031658;28;20029;-52
2023/06/29 09:42:28;;;;;;;1.65;0.13;;;;;;;22.29;100.00;100898.41;5028053;28;20021;-60
2023/06/29 09:44:54;;;;;;;0.52;0.10;;;;;;;22.29;100.00;100896.50;5029763;28;20041;-59
2023/06/29 09:47:19;;;;;;;0.35;0.10;;;;;;;22.27;100.00;100884.34;5028586;28;20032;-53
2023/06/29 09:49:47;;;;;;;0.65;0.00;;;;;;;21.97;100.00;100894.59;5031527;28;20501;-51
2023/06/29 09:52:15;;;;;;;0.77;0.00;;;;;;;22.17;100.00;100893.13;5030043;28;20047;-53
2023/06/29 09:54:40;;;;;;;1.20;0.10;;;;;;;22.65;100.00;100888.63;5032369;28;20033;-55
2023/06/29 09:57:07;;;;;;;3.83;0.30;;;;;;;22.84;100.00;100892.50;5033021;28;20037;-52
2023/06/29 09:59:34;;;;;;;2.83;0.17;;;;;;;22.68;100.00;100890.81;5034527;28;20045;-54
2023/06/29 10:02:01;;;;;;;0.50;0.05;;;;;;;22.79;100.00;100889.78;5033608;28;20052;-60
2023/06/29 10:04:26;;;;;;;0.40;0.00;;;;;;;22.71;100.00;100892.19;5035182;28;20165;-51
2023/06/29 10:07:15;;;;;;;1.58;0.20;;;;;;;22.52;100.00;100894.50;5036496;28;20436;-57
2023/06/29 10:09:45;;;;;;;0.32;0.25;;;;;;;22.65;100.00;100889.44;5038273;28;20037;-57
2023/06/29 10:12:11;;;;;;;0.10;0.00;;;;;;;22.88;100.00;100887.41;5039240;28;20513;-54
2023/06/29 10:14:38;;;;;;;0.38;0.25;;;;;;;22.68;100.00;100887.31;5038359;28;20037;-57
2023/06/29 10:17:33;;;;;;;0.52;0.20;;;;;;;22.80;100.00;100886.03;5035519;28;20033;-52
2023/06/29 10:20:01;;;;;;;1.38;0.10;;;;;;;22.50;100.00;100885.84;5035078;28;20143;-55
2023/06/29 10:22:27;;;;;;;0.80;0.20;;;;;;;22.56;100.00;100887.50;5038619;28;20493;-60
2023/06/29 10:24:56;;;;;;;0.45;0.05;;;;;;;22.70;100.00;100880.56;5036458;28;20105;-55
2023/06/29 10:27:24;;;;;;;0.65;0.00;;;;;;;22.94;100.00;100886.34;5034651;28;20029;-54
2023/06/29 10:29:50;;;;;;;0.10;0.10;;;;;;;23.14;100.00;100890.25;5033437;28;20032;-55
2023/06/29 10:32:35;;;;;;;0.22;0.00;;;;;;;23.81;100.00;100881.25;5034512;28;20033;-52
2023/06/29 10:35:11;;;;;;;0.05;0.00;;;;;;;24.40;100.00;100871.72;5034434;28;20113;-54
2023/06/29 10:37:44;;;;;;;1.50;0.00;;;;;;;24.44;100.00;100869.28;5038040;28;20040;-53
2023/06/29 10:40:10;;;;;;;2.67;0.75;;;;;;;23.94;100.00;100882.59;5039653;28;20033;-52
2023/06/29 10:42:38;;;;;;;1.97;0.20;;;;;;;23.74;100.00;100880.69;5038036;28;20778;-55
2023/06/29 10:45:15;;;;;;;0.15;0.00;;;;;;;23.52;100.00;100889.81;5036539;28;20270;-53
2023/06/29 10:47:41;;;;;;;0.73;0.10;;;;;;;23.28;100.00;100886.81;5036149;28;20394;-57
2023/06/29 10:50:09;;;;;;;0.77;0.20;;;;;;;23.37;100.00;100894.38;5034485;28;20118;-56
2023/06/29 10:52:35;;;;;;;2.40;0.20;;;;;;;23.10;100.00;100889.94;5035729;28;20156;-57
2023/06/29 10:55:18;;;;;;;10.13;5.13;;;;;;;23.36;100.00;100896.25;5036955;28;20044;-59
2023/06/29 10:57:58;;;;;;;6.13;2.60;;;;;;;24.14;100.00;100892.63;5032033;28;20048;-50
2023/06/29 11:00:25;;;;;;;8.18;1.30;;;;;;;24.77;100.00;100894.97;5035294;28;20143;-58
2023/06/29 11:02:51;;;;;;;8.50;2.35;;;;;;;24.82;100.00;100889.53;5034549;28;20044;-60
2023/06/29 11:05:18;;;;;;;3.60;1.00;;;;;;;24.58;100.00;100898.28;5034596;28;20037;-56
2023/06/29 11:07:44;;;;;;;5.00;1.55;;;;;;;24.75;100.00;100889.81;5027026;28;20118;-57
2023/06/29 11:10:11;;;;;;;5.47;1.92;;;;;;;24.24;100.00;100894.50;5034072;28;20064;-59
2023/06/29 11:12:40;;;;;;;1.35;0.47;;;;;;;24.03;100.00;100896.41;5033254;28;20557;-52